createdAt,value
2023-02-08T00:00:27.102Z,10
2023-02-08T00:01:26.884Z,10
2023-02-08T00:02:26.893Z,9
2023-02-08T00:03:26.973Z,10
2023-02-08T00:04:27.638Z,10
2023-02-08T00:05:27.209Z,10
2023-02-08T00:06:27.532Z,10
2023-02-08T00:07:26.811Z,10
2023-02-08T00:08:27.098Z,12
2023-02-08T00:09:26.819Z,14
2023-02-08T00:10:26.820Z,14
2023-02-08T00:11:26.860Z,13
2023-02-08T00:12:26.837Z,13
2023-02-08T00:13:26.863Z,13
2023-02-08T00:14:26.961Z,13
2023-02-08T00:15:27.349Z,13
2023-02-08T00:16:27.108Z,13
2023-02-08T00:17:27.762Z,13
2023-02-08T00:18:27.569Z,13
2023-02-08T00:19:27.363Z,12
2023-02-08T00:20:26.105Z,12
2023-02-08T00:21:26.962Z,10
2023-02-08T00:22:26.969Z,10
2023-02-08T00:23:26.844Z,10
2023-02-08T00:24:26.831Z,10
2023-02-08T00:25:26.814Z,10
2023-02-08T00:26:26.830Z,10
2023-02-08T00:27:26.946Z,10
2023-02-08T00:28:27.388Z,10
2023-02-08T00:29:27.430Z,10
2023-02-08T00:30:27.342Z,10
2023-02-08T00:31:27.528Z,10
2023-02-08T00:32:27.526Z,10
2023-02-08T00:33:27.362Z,10
2023-02-08T00:34:27.523Z,10
2023-02-08T00:35:26.844Z,10
2023-02-08T00:36:26.921Z,10
2023-02-08T00:37:27.396Z,10
2023-02-08T00:38:27.314Z,10
2023-02-08T00:39:27.398Z,9
2023-02-08T00:40:28.566Z,9
2023-02-08T00:41:26.897Z,9
2023-02-08T00:42:27.519Z,9
2023-02-08T00:43:27.851Z,9
2023-02-08T00:44:27.732Z,9
2023-02-08T00:45:27.748Z,10
2023-02-08T00:46:27.409Z,10
2023-02-08T00:47:26.846Z,10
2023-02-08T00:48:26.845Z,10
2023-02-08T00:49:27.346Z,10
2023-02-08T00:50:27.077Z,10
2023-02-08T00:51:27.464Z,10
2023-02-08T00:52:26.859Z,10
2023-02-08T00:53:26.807Z,9
2023-02-08T00:54:27.540Z,9
2023-02-08T00:55:26.905Z,9
2023-02-08T00:56:27.675Z,9
2023-02-08T00:57:26.901Z,9
2023-02-08T00:58:26.889Z,9
2023-02-08T00:59:27.421Z,10
2023-02-08T01:00:26.900Z,9
2023-02-08T01:01:27.535Z,9
2023-02-08T01:02:27.099Z,9
2023-02-08T01:03:26.805Z,9
2023-02-08T01:04:26.940Z,9
2023-02-08T01:05:27.511Z,10
2023-02-08T01:06:27.060Z,9
2023-02-08T01:07:27.428Z,10
2023-02-08T01:08:26.871Z,10
2023-02-08T01:09:26.800Z,10
2023-02-08T01:10:26.869Z,10
2023-02-08T01:11:27.709Z,9
2023-02-08T01:12:26.883Z,9
2023-02-08T01:13:27.083Z,9
2023-02-08T01:14:27.531Z,9
2023-02-08T01:15:27.165Z,9
2023-02-08T01:16:27.241Z,10
2023-02-08T01:17:27.240Z,9
2023-02-08T01:18:27.084Z,9
2023-02-08T01:19:27.258Z,10
2023-02-08T01:20:27.212Z,9
2023-02-08T01:21:27.548Z,9
2023-02-08T01:22:26.849Z,10
2023-02-08T01:23:26.871Z,10
2023-02-08T01:24:26.873Z,10
2023-02-08T01:25:26.999Z,10
2023-02-08T01:26:27.625Z,10
2023-02-08T01:27:26.899Z,10
2023-02-08T01:28:27.295Z,10
2023-02-08T01:29:26.790Z,10
2023-02-08T01:30:26.950Z,10
2023-02-08T01:31:26.840Z,9
2023-02-08T01:32:27.015Z,10
2023-02-08T01:33:26.875Z,10
2023-02-08T01:34:26.934Z,10
2023-02-08T01:35:27.093Z,10
2023-02-08T01:36:27.456Z,10
2023-02-08T01:37:26.845Z,10
2023-02-08T01:38:26.840Z,10
2023-02-08T01:39:26.864Z,10
2023-02-08T01:40:27.477Z,10
2023-02-08T01:41:27.473Z,10
2023-02-08T01:42:27.219Z,10
2023-02-08T01:43:27.502Z,10
2023-02-08T01:44:26.793Z,10
2023-02-08T01:45:27.014Z,11
2023-02-08T01:46:27.415Z,10
2023-02-08T01:47:27.513Z,10
2023-02-08T01:48:27.348Z,10
2023-02-08T01:49:26.924Z,10
2023-02-08T01:51:27.055Z,10
2023-02-08T01:52:27.436Z,10
2023-02-08T01:53:27.195Z,10
2023-02-08T01:54:26.849Z,9
2023-02-08T01:55:27.362Z,10
2023-02-08T01:56:27.579Z,10
2023-02-08T01:57:26.888Z,9
2023-02-08T01:58:26.864Z,10
2023-02-08T01:59:27.086Z,10
2023-02-08T02:00:26.893Z,9
2023-02-08T02:01:27.829Z,10
2023-02-08T02:02:26.897Z,10
2023-02-08T02:03:26.906Z,9
2023-02-08T02:04:27.181Z,10
2023-02-08T02:05:26.785Z,9
2023-02-08T02:06:26.859Z,10
2023-02-08T02:07:26.833Z,9
2023-02-08T02:08:27.545Z,10
2023-02-08T02:09:26.851Z,9
2023-02-08T02:10:27.600Z,10
2023-02-08T02:11:26.874Z,9
2023-02-08T02:12:27.568Z,10
2023-02-08T02:13:28.819Z,9
2023-02-08T02:14:26.796Z,10
2023-02-08T02:15:26.878Z,9
2023-02-08T02:16:26.850Z,10
2023-02-08T02:17:27.218Z,9
2023-02-08T02:18:26.925Z,9
2023-02-08T02:19:26.909Z,9
2023-02-08T02:20:27.593Z,10
2023-02-08T02:21:26.858Z,10
2023-02-08T02:22:26.966Z,10
2023-02-08T02:23:27.193Z,10
2023-02-08T02:24:27.661Z,10
2023-02-08T02:25:26.850Z,9
2023-02-08T02:26:27.023Z,10
2023-02-08T02:27:27.590Z,9
2023-02-08T02:28:27.119Z,10
2023-02-08T02:29:26.853Z,10
2023-02-08T02:30:27.344Z,9
2023-02-08T02:31:27.637Z,9
2023-02-08T02:32:27.003Z,9
2023-02-08T02:33:26.915Z,9
2023-02-08T02:34:27.204Z,9
2023-02-08T02:35:26.935Z,9
2023-02-08T02:36:27.448Z,9
2023-02-08T02:37:27.226Z,10
2023-02-08T02:38:29.542Z,9
2023-02-08T02:39:26.833Z,9
2023-02-08T02:40:26.838Z,9
2023-02-08T02:41:27.495Z,9
2023-02-08T02:42:26.794Z,9
2023-02-08T02:43:27.192Z,8
2023-02-08T02:44:27.367Z,9
2023-02-08T02:45:26.884Z,9
2023-02-08T02:46:26.886Z,9
2023-02-08T02:47:27.223Z,10
2023-02-08T02:48:27.166Z,10
2023-02-08T02:49:27.615Z,9
2023-02-08T02:50:27.237Z,8
2023-02-08T02:51:27.305Z,8
2023-02-08T02:52:27.214Z,9
2023-02-08T02:53:27.648Z,9
2023-02-08T02:54:26.850Z,9
2023-02-08T02:55:27.464Z,9
2023-02-08T02:56:26.234Z,9
2023-02-08T02:57:27.762Z,9
2023-02-08T02:59:27.205Z,9
2023-02-08T03:00:26.860Z,10
2023-02-08T03:01:26.872Z,9
2023-02-08T03:02:26.793Z,10
2023-02-08T03:03:26.818Z,9
2023-02-08T03:04:27.340Z,9
2023-02-08T03:05:26.776Z,9
2023-02-08T03:06:27.044Z,9
2023-02-08T03:07:27.486Z,9
2023-02-08T03:08:26.853Z,9
2023-02-08T03:09:27.651Z,9
2023-02-08T03:10:26.813Z,9
2023-02-08T03:11:27.680Z,9
2023-02-08T03:12:27.556Z,9
2023-02-08T03:13:26.828Z,9
2023-02-08T03:14:26.854Z,9
2023-02-08T03:15:27.479Z,9
2023-02-08T03:16:26.891Z,9
2023-02-08T03:17:26.794Z,8
2023-02-08T03:18:26.843Z,9
2023-02-08T03:19:26.866Z,9
2023-02-08T03:20:26.794Z,9
2023-02-08T03:21:27.722Z,9
2023-02-08T03:22:27.658Z,9
2023-02-08T03:23:27.644Z,10
2023-02-08T03:24:26.821Z,9
2023-02-08T03:25:27.263Z,9
2023-02-08T03:26:26.830Z,9
2023-02-08T03:27:27.128Z,9
2023-02-08T03:28:26.827Z,9
2023-02-08T03:29:26.840Z,9
2023-02-08T03:30:26.882Z,8
2023-02-08T03:31:26.919Z,8
2023-02-08T03:32:27.473Z,9
2023-02-08T03:33:27.098Z,9
2023-02-08T03:34:26.807Z,9
2023-02-08T03:35:27.518Z,9
2023-02-08T03:36:27.306Z,8
2023-02-08T03:37:26.856Z,9
2023-02-08T03:38:27.231Z,9
2023-02-08T03:39:27.022Z,8
2023-02-08T03:40:26.778Z,9
2023-02-08T03:41:26.793Z,9
2023-02-08T03:42:27.070Z,8
2023-02-08T03:43:26.799Z,9
2023-02-08T03:44:27.329Z,9
2023-02-08T03:45:27.520Z,9
2023-02-08T03:46:26.871Z,9
2023-02-08T03:47:26.846Z,9
2023-02-08T03:48:26.903Z,10
2023-02-08T03:49:27.108Z,9
2023-02-08T03:50:27.065Z,9
2023-02-08T03:51:27.469Z,8
2023-02-08T03:52:27.408Z,9
2023-02-08T03:53:27.799Z,9
2023-02-08T03:54:26.816Z,9
2023-02-08T03:55:26.896Z,9
2023-02-08T03:56:26.789Z,9
2023-02-08T03:57:26.798Z,9
2023-02-08T03:58:27.664Z,9
2023-02-08T03:59:26.858Z,9
2023-02-08T04:00:26.849Z,9
2023-02-08T04:01:27.512Z,9
2023-02-08T04:02:27.326Z,9
2023-02-08T04:03:26.932Z,9
2023-02-08T04:04:27.401Z,9
2023-02-08T04:05:26.774Z,9
2023-02-08T04:06:27.115Z,9
2023-02-08T04:07:26.908Z,9
2023-02-08T04:08:26.904Z,9
2023-02-08T04:09:26.793Z,9
2023-02-08T04:10:26.818Z,9
2023-02-08T04:11:26.846Z,9
2023-02-08T04:12:26.809Z,8
2023-02-08T04:13:26.821Z,9
2023-02-08T04:14:26.941Z,10
2023-02-08T04:15:26.796Z,9
2023-02-08T04:16:27.265Z,9
2023-02-08T04:17:27.059Z,9
2023-02-08T04:18:27.548Z,9
2023-02-08T04:19:26.831Z,9
2023-02-08T04:20:27.164Z,9
2023-02-08T04:21:27.533Z,9
2023-02-08T04:22:27.236Z,9
2023-02-08T04:23:26.837Z,9
2023-02-08T04:24:27.587Z,9
2023-02-08T04:25:26.983Z,9
2023-02-08T04:26:26.812Z,9
2023-02-08T04:27:26.794Z,9
2023-02-08T04:28:26.855Z,9
2023-02-08T04:29:26.801Z,10
2023-02-08T04:30:26.915Z,8
2023-02-08T04:31:26.976Z,9
2023-02-08T04:32:26.839Z,9
2023-02-08T04:33:27.060Z,8
2023-02-08T04:34:27.084Z,9
2023-02-08T04:35:27.664Z,9
2023-02-08T04:36:26.889Z,9
2023-02-08T04:37:27.513Z,9
2023-02-08T04:38:26.910Z,9
2023-02-08T04:39:26.810Z,8
2023-02-08T04:40:27.332Z,9
2023-02-08T04:41:26.785Z,9
2023-02-08T04:42:26.831Z,9
2023-02-08T04:43:27.334Z,8
2023-02-08T04:44:27.351Z,9
2023-02-08T04:45:26.801Z,8
2023-02-08T04:46:27.500Z,9
2023-02-08T04:47:26.788Z,9
2023-02-08T04:48:27.159Z,8
2023-02-08T04:49:27.276Z,9
2023-02-08T04:50:27.086Z,9
2023-02-08T04:51:28.017Z,8
2023-02-08T04:52:29.114Z,8
2023-02-08T04:53:26.887Z,8
2023-02-08T04:54:27.326Z,9
2023-02-08T04:55:27.504Z,8
2023-02-08T04:56:27.524Z,8
2023-02-08T04:57:27.004Z,8
2023-02-08T04:58:27.535Z,8
2023-02-08T04:59:26.880Z,8
2023-02-08T05:00:26.833Z,8
2023-02-08T05:01:27.805Z,8
2023-02-08T05:02:27.448Z,8
2023-02-08T05:03:26.847Z,8
2023-02-08T05:04:26.862Z,8
2023-02-08T05:05:27.480Z,8
2023-02-08T05:06:26.777Z,8
2023-02-08T05:07:26.818Z,8
2023-02-08T05:08:27.509Z,8
2023-02-08T05:09:26.947Z,8
2023-02-08T05:10:26.893Z,8
2023-02-08T05:11:25.707Z,8
2023-02-08T05:12:27.417Z,8
2023-02-08T05:13:27.119Z,8
2023-02-08T05:14:27.743Z,8
2023-02-08T05:15:26.787Z,8
2023-02-08T05:16:26.889Z,8
2023-02-08T05:17:26.790Z,9
2023-02-08T05:18:27.351Z,11
2023-02-08T05:19:26.983Z,11
2023-02-08T05:20:27.546Z,11
2023-02-08T05:21:26.863Z,9
2023-02-08T05:22:26.889Z,9
2023-02-08T05:23:26.868Z,9
2023-02-08T05:24:26.881Z,9
2023-02-08T05:25:27.074Z,9
2023-02-08T05:26:27.293Z,8
2023-02-08T05:27:26.781Z,11
2023-02-08T05:28:27.315Z,14
2023-02-08T05:29:27.443Z,11
2023-02-08T05:30:27.448Z,10
2023-02-08T05:31:26.976Z,9
2023-02-08T05:32:27.316Z,8
2023-02-08T05:33:26.803Z,8
2023-02-08T05:34:25.625Z,8
2023-02-08T05:35:27.627Z,8
2023-02-08T05:36:26.779Z,8
2023-02-08T05:37:27.286Z,8
2023-02-08T05:38:26.852Z,8
2023-02-08T05:39:27.478Z,8
2023-02-08T05:40:26.897Z,8
2023-02-08T05:41:27.134Z,8
2023-02-08T05:42:26.779Z,8
2023-02-08T05:43:26.767Z,9
2023-02-08T05:44:27.414Z,8
2023-02-08T05:45:26.825Z,8
2023-02-08T05:46:27.837Z,8
2023-02-08T05:47:27.529Z,7
2023-02-08T05:48:26.915Z,8
2023-02-08T05:49:27.229Z,8
2023-02-08T05:50:27.446Z,8
2023-02-08T05:51:26.850Z,8
2023-02-08T05:52:26.782Z,8
2023-02-08T05:53:27.359Z,8
2023-02-08T05:54:26.764Z,9
2023-02-08T05:55:27.702Z,9
2023-02-08T05:56:27.480Z,9
2023-02-08T05:57:26.779Z,9
2023-02-08T05:58:26.764Z,8
2023-02-08T05:59:27.108Z,9
2023-02-08T06:00:26.811Z,9
2023-02-08T06:01:27.447Z,8
2023-02-08T06:02:27.991Z,9
2023-02-08T06:03:27.127Z,8
2023-02-08T06:04:26.832Z,8
2023-02-08T06:05:26.783Z,8
2023-02-08T06:06:26.839Z,8
2023-02-08T06:07:26.774Z,9
2023-02-08T06:08:26.785Z,8
2023-02-08T06:09:26.951Z,8
2023-02-08T06:10:26.861Z,8
2023-02-08T06:11:26.783Z,8
2023-02-08T06:12:27.388Z,8
2023-02-08T06:13:26.784Z,8
2023-02-08T06:14:26.976Z,8
2023-02-08T06:15:27.203Z,8
2023-02-08T06:16:27.501Z,8
2023-02-08T06:17:27.512Z,9
2023-02-08T06:18:26.801Z,9
2023-02-08T06:19:26.914Z,9
2023-02-08T06:20:27.192Z,8
2023-02-08T06:21:27.199Z,9
2023-02-08T06:22:27.688Z,9
2023-02-08T06:23:27.341Z,8
2023-02-08T06:24:26.837Z,9
2023-02-08T06:25:26.870Z,8
2023-02-08T06:26:27.364Z,9
2023-02-08T06:27:26.855Z,8
2023-02-08T06:28:27.510Z,9
2023-02-08T06:29:26.775Z,8
2023-02-08T06:30:27.599Z,8
2023-02-08T06:31:27.523Z,8
2023-02-08T06:32:26.840Z,9
2023-02-08T06:33:27.384Z,9
2023-02-08T06:34:28.056Z,8
2023-02-08T06:35:27.028Z,8
2023-02-08T06:36:27.529Z,9
2023-02-08T06:37:26.783Z,8
2023-02-08T06:38:26.846Z,8
2023-02-08T06:39:26.839Z,8
2023-02-08T06:40:27.370Z,9
2023-02-08T06:41:25.590Z,9
2023-02-08T06:42:26.771Z,9
2023-02-08T06:43:26.883Z,9
2023-02-08T06:44:27.097Z,8
2023-02-08T06:45:26.805Z,9
2023-02-08T06:46:27.298Z,9
2023-02-08T06:47:26.787Z,9
2023-02-08T06:48:26.800Z,9
2023-02-08T06:49:26.896Z,9
2023-02-08T06:50:26.777Z,9
2023-02-08T06:51:26.812Z,9
2023-02-08T06:52:26.812Z,9
2023-02-08T06:53:27.640Z,9
2023-02-08T06:54:27.545Z,9
2023-02-08T06:55:26.806Z,9
2023-02-08T06:56:26.843Z,9
2023-02-08T06:57:26.892Z,9
2023-02-08T06:58:26.767Z,9
2023-02-08T06:59:27.220Z,9
2023-02-08T07:00:26.843Z,9
2023-02-08T07:01:27.372Z,8
2023-02-08T07:02:26.817Z,9
2023-02-08T07:03:26.984Z,9
2023-02-08T07:04:26.764Z,9
2023-02-08T07:05:27.257Z,9
2023-02-08T07:06:26.817Z,10
2023-02-08T07:07:26.811Z,9
2023-02-08T07:08:26.851Z,8
2023-02-08T07:09:26.832Z,8
2023-02-08T07:10:27.499Z,9
2023-02-08T07:11:26.835Z,9
2023-02-08T07:12:27.374Z,9
2023-02-08T07:13:27.141Z,9
2023-02-08T07:14:27.380Z,9
2023-02-08T07:15:27.409Z,9
2023-02-08T07:16:27.322Z,9
2023-02-08T07:17:27.488Z,9
2023-02-08T07:18:26.866Z,9
2023-02-08T07:19:26.905Z,9
2023-02-08T07:20:26.899Z,9
2023-02-08T07:21:27.229Z,8
2023-02-08T07:22:27.630Z,10
2023-02-08T07:23:26.847Z,8
2023-02-08T07:24:26.771Z,9
2023-02-08T07:25:27.082Z,8
2023-02-08T07:26:27.600Z,9
2023-02-08T07:27:26.780Z,9
2023-02-08T07:28:27.118Z,9
2023-02-08T07:29:27.154Z,8
2023-02-08T07:30:27.218Z,9
2023-02-08T07:31:27.171Z,8
2023-02-08T07:32:26.870Z,9
2023-02-08T07:33:26.875Z,9
2023-02-08T07:34:26.741Z,9
2023-02-08T07:35:26.779Z,8
2023-02-08T07:36:28.439Z,9
2023-02-08T07:37:26.862Z,9
2023-02-08T07:38:26.797Z,8
2023-02-08T07:39:26.800Z,9
2023-02-08T07:40:27.230Z,9
2023-02-08T07:41:27.540Z,8
2023-02-08T07:42:27.705Z,9
2023-02-08T07:43:27.307Z,8
2023-02-08T07:44:26.845Z,8
2023-02-08T07:45:27.574Z,9
2023-02-08T07:46:27.300Z,8
2023-02-08T07:47:27.391Z,8
2023-02-08T07:48:25.592Z,9
2023-02-08T07:49:27.297Z,8
2023-02-08T07:50:27.444Z,9
2023-02-08T07:51:26.901Z,9
2023-02-08T07:52:27.637Z,8
2023-02-08T07:53:26.831Z,8
2023-02-08T07:54:26.908Z,7
2023-02-08T07:55:26.747Z,8
2023-02-08T07:56:26.776Z,8
2023-02-08T07:57:26.868Z,9
2023-02-08T07:58:26.825Z,9
2023-02-08T07:59:26.866Z,9
2023-02-08T08:00:26.957Z,8
2023-02-08T08:01:27.487Z,9
2023-02-08T08:02:26.761Z,9
2023-02-08T08:03:27.118Z,8
2023-02-08T08:04:26.766Z,8
2023-02-08T08:05:26.759Z,9
2023-02-08T08:06:26.916Z,8
2023-02-08T08:07:26.997Z,8
2023-02-08T08:08:27.335Z,8
2023-02-08T08:09:27.528Z,8
2023-02-08T08:10:25.783Z,8
2023-02-08T08:11:27.178Z,8
2023-02-08T08:12:26.755Z,8
2023-02-08T08:13:27.437Z,8
2023-02-08T08:14:26.808Z,8
2023-02-08T08:15:26.849Z,7
2023-02-08T08:16:27.118Z,8
2023-02-08T08:17:29.785Z,8
2023-02-08T08:18:26.767Z,8
2023-02-08T08:19:27.294Z,7
2023-02-08T08:20:27.349Z,8
2023-02-08T08:21:26.905Z,8
2023-02-08T08:22:26.797Z,7
2023-02-08T08:23:27.608Z,7
2023-02-08T08:24:26.737Z,7
2023-02-08T08:25:27.212Z,7
2023-02-08T08:26:26.776Z,7
2023-02-08T08:27:26.822Z,7
2023-02-08T08:28:28.023Z,8
2023-02-08T08:29:26.841Z,7
2023-02-08T08:30:26.893Z,7
2023-02-08T08:31:27.391Z,8
2023-02-08T08:32:26.853Z,7
2023-02-08T08:33:27.706Z,7
2023-02-08T08:34:27.425Z,8
2023-02-08T08:35:26.799Z,8
2023-02-08T08:36:27.517Z,8
2023-02-08T08:37:28.674Z,8
2023-02-08T08:38:26.839Z,8
2023-02-08T08:39:26.748Z,8
2023-02-08T08:40:26.797Z,8
2023-02-08T08:41:26.840Z,8
2023-02-08T08:42:27.116Z,8
2023-02-08T08:43:26.922Z,8
2023-02-08T08:44:27.236Z,7
2023-02-08T08:45:26.960Z,7
2023-02-08T08:46:27.708Z,8
2023-02-08T08:47:26.860Z,7
2023-02-08T08:48:27.064Z,8
2023-02-08T08:49:27.498Z,8
2023-02-08T08:50:26.824Z,8
2023-02-08T08:51:27.441Z,8
2023-02-08T08:52:27.027Z,8
2023-02-08T08:53:27.322Z,8
2023-02-08T08:54:27.399Z,8
2023-02-08T08:55:26.807Z,8
2023-02-08T08:56:25.737Z,8
2023-02-08T08:57:27.416Z,8
2023-02-08T08:58:27.238Z,8
2023-02-08T08:59:26.790Z,7
2023-02-08T09:00:26.768Z,8
2023-02-08T09:01:26.806Z,8
2023-02-08T09:02:26.845Z,9
2023-02-08T09:03:26.808Z,10
2023-02-08T09:04:26.855Z,8
2023-02-08T09:05:26.795Z,8
2023-02-08T09:06:26.784Z,10
2023-02-08T09:07:26.864Z,19
2023-02-08T09:08:26.908Z,24
2023-02-08T09:09:27.710Z,14
2023-02-08T09:10:27.405Z,11
2023-02-08T09:11:26.909Z,13
2023-02-08T09:12:27.218Z,11
2023-02-08T09:13:27.187Z,15
2023-02-08T09:14:26.806Z,42
2023-02-08T09:15:27.533Z,70
2023-02-08T09:16:27.780Z,32
2023-02-08T09:17:26.838Z,18
2023-02-08T09:18:26.133Z,11
2023-02-08T09:19:27.246Z,10
2023-02-08T09:20:26.845Z,9
2023-02-08T09:21:26.886Z,8
2023-02-08T09:22:27.185Z,8
2023-02-08T09:23:26.756Z,8
2023-02-08T09:24:26.810Z,8
2023-02-08T09:25:26.732Z,8
2023-02-08T09:26:26.798Z,9
2023-02-08T09:27:27.326Z,10
2023-02-08T09:28:26.770Z,10
2023-02-08T09:29:26.993Z,9
2023-02-08T09:30:26.796Z,9
2023-02-08T09:31:26.904Z,9
2023-02-08T09:32:27.292Z,8
2023-02-08T09:33:26.789Z,8
2023-02-08T09:34:27.101Z,8
2023-02-08T09:35:26.961Z,8
2023-02-08T09:36:26.808Z,9
2023-02-08T09:37:26.774Z,7
2023-02-08T09:38:27.662Z,9
2023-02-08T09:39:27.181Z,8
2023-02-08T09:40:25.622Z,8
2023-02-08T09:41:26.810Z,8
2023-02-08T09:42:26.814Z,10
2023-02-08T09:43:26.762Z,10
2023-02-08T09:44:26.782Z,9
2023-02-08T09:45:26.753Z,8
2023-02-08T09:46:26.805Z,9
2023-02-08T09:47:26.817Z,9
2023-02-08T09:48:27.326Z,9
2023-02-08T09:49:27.673Z,10
2023-02-08T09:50:26.747Z,9
2023-02-08T09:51:26.809Z,11
2023-02-08T09:52:27.581Z,10
2023-02-08T09:53:27.314Z,9
2023-02-08T09:54:26.956Z,8
2023-02-08T09:55:27.254Z,8
2023-02-08T09:56:27.714Z,8
2023-02-08T09:57:26.884Z,7
2023-02-08T09:58:26.788Z,6
2023-02-08T09:59:27.308Z,8
2023-02-08T10:00:26.922Z,10
2023-02-08T10:01:26.831Z,10
2023-02-08T10:02:26.824Z,7
2023-02-08T10:03:27.119Z,7
2023-02-08T10:04:27.033Z,8
2023-02-08T10:05:27.228Z,7
2023-02-08T10:06:26.845Z,7
2023-02-08T10:07:27.088Z,7
2023-02-08T10:08:34.711Z,7
2023-02-08T10:09:27.349Z,7
2023-02-08T10:10:26.902Z,7
2023-02-08T10:11:26.749Z,8
2023-02-08T10:12:26.770Z,7
2023-02-08T10:13:40.550Z,8
2023-02-08T10:14:26.755Z,8
2023-02-08T10:15:26.793Z,8
2023-02-08T10:16:26.812Z,8
2023-02-08T10:17:26.908Z,8
2023-02-08T10:18:27.074Z,8
2023-02-08T10:19:27.760Z,8
2023-02-08T10:20:27.085Z,8
2023-02-08T10:21:26.749Z,8
2023-02-08T10:22:27.628Z,7
2023-02-08T10:23:27.577Z,8
2023-02-08T10:24:27.314Z,7
2023-02-08T10:25:27.444Z,7
2023-02-08T10:26:26.777Z,8
2023-02-08T10:27:27.260Z,7
2023-02-08T10:28:26.969Z,8
2023-02-08T10:29:27.328Z,25
2023-02-08T10:30:27.193Z,8
2023-02-08T10:31:27.061Z,7
2023-02-08T10:32:27.321Z,10
2023-02-08T10:33:28.452Z,23
2023-02-08T10:34:26.783Z,25
2023-02-08T10:35:27.281Z,22
2023-02-08T10:36:26.742Z,11
2023-02-08T10:37:26.753Z,6
2023-02-08T10:38:37.160Z,7
2023-02-08T10:39:27.272Z,9
2023-02-08T10:40:27.270Z,10
2023-02-08T10:41:27.596Z,8
2023-02-08T10:42:26.768Z,7
2023-02-08T10:43:27.388Z,7
2023-02-08T10:44:27.293Z,7
2023-02-08T10:45:26.778Z,7
2023-02-08T10:46:25.784Z,7
2023-02-08T10:47:26.754Z,6
2023-02-08T10:48:26.747Z,7
2023-02-08T10:49:26.938Z,6
2023-02-08T10:50:29.838Z,6
2023-02-08T10:51:26.822Z,6
2023-02-08T10:52:26.840Z,9
2023-02-08T10:53:27.140Z,7
2023-02-08T10:54:27.364Z,8
2023-02-08T10:55:26.747Z,8
2023-02-08T10:56:27.457Z,9
2023-02-08T10:57:27.283Z,8
2023-02-08T10:58:27.402Z,8
2023-02-08T10:59:27.590Z,6
2023-02-08T11:00:26.847Z,7
2023-02-08T11:01:27.616Z,6
2023-02-08T11:02:26.771Z,6
2023-02-08T11:03:26.821Z,6
2023-02-08T11:04:26.846Z,5
2023-02-08T11:05:27.391Z,6
2023-02-08T11:06:27.538Z,7
2023-02-08T11:07:27.236Z,9
2023-02-08T11:08:26.828Z,7
2023-02-08T11:09:27.473Z,6
2023-02-08T11:10:27.245Z,6
2023-02-08T11:11:26.736Z,6
2023-02-08T11:12:26.749Z,6
2023-02-08T11:13:26.714Z,6
2023-02-08T11:14:40.894Z,6
2023-02-08T11:15:26.811Z,5
2023-02-08T11:16:27.395Z,6
2023-02-08T11:17:26.794Z,6
2023-02-08T11:18:26.779Z,6
2023-02-08T11:19:26.990Z,7
2023-02-08T11:20:26.916Z,6
2023-02-08T11:21:27.543Z,7
2023-02-08T11:22:27.086Z,7
2023-02-08T11:23:27.126Z,6
2023-02-08T11:24:27.108Z,7
2023-02-08T11:25:27.113Z,7
2023-02-08T11:26:27.070Z,6
2023-02-08T11:27:26.749Z,6
2023-02-08T11:28:26.915Z,6
2023-02-08T11:29:27.435Z,6
2023-02-08T11:30:26.909Z,5
2023-02-08T11:31:26.403Z,6
2023-02-08T11:32:26.891Z,6
2023-02-08T11:33:26.794Z,6
2023-02-08T11:34:27.631Z,6
2023-02-08T11:35:26.943Z,5
2023-02-08T11:36:27.095Z,6
2023-02-08T11:37:27.229Z,6
2023-02-08T11:38:27.764Z,6
2023-02-08T11:39:27.807Z,6
2023-02-08T11:40:26.836Z,6
2023-02-08T11:41:27.854Z,6
2023-02-08T11:42:27.042Z,6
2023-02-08T11:43:26.958Z,6
2023-02-08T11:44:27.486Z,6
2023-02-08T11:45:26.876Z,7
2023-02-08T11:46:27.375Z,13
2023-02-08T11:47:27.413Z,15
2023-02-08T11:48:26.785Z,12
2023-02-08T11:49:26.849Z,6
2023-02-08T11:50:27.123Z,6
2023-02-08T11:51:26.798Z,6
2023-02-08T11:52:27.340Z,5
2023-02-08T11:53:28.544Z,5
2023-02-08T11:54:27.404Z,5
2023-02-08T11:55:27.450Z,5
2023-02-08T11:56:27.128Z,8
2023-02-08T11:57:26.981Z,6
2023-02-08T11:58:26.846Z,7
2023-02-08T11:59:27.672Z,6
2023-02-08T12:00:27.575Z,6
2023-02-08T12:01:26.777Z,6
2023-02-08T12:02:27.542Z,6
2023-02-08T12:03:27.683Z,6
2023-02-08T12:04:26.899Z,5
2023-02-08T12:05:26.759Z,5
2023-02-08T12:06:26.776Z,5
2023-02-08T12:07:26.808Z,5
2023-02-08T12:08:27.215Z,5
2023-02-08T12:09:26.833Z,5
2023-02-08T12:10:27.441Z,6
2023-02-08T12:11:26.829Z,5
2023-02-08T12:12:27.098Z,6
2023-02-08T12:13:26.781Z,6
2023-02-08T12:14:26.836Z,6
2023-02-08T12:15:26.811Z,7
2023-02-08T12:16:25.912Z,5
2023-02-08T12:17:26.785Z,6
2023-02-08T12:18:26.811Z,6
2023-02-08T12:19:27.317Z,7
2023-02-08T12:20:26.762Z,7
2023-02-08T12:21:27.193Z,6
2023-02-08T12:22:27.542Z,5
2023-02-08T12:23:27.723Z,5
2023-02-08T12:24:26.835Z,7
2023-02-08T12:25:26.743Z,11
2023-02-08T12:26:27.259Z,8
2023-02-08T12:27:26.833Z,8
2023-02-08T12:28:27.245Z,7
2023-02-08T12:29:33.189Z,7
2023-02-08T12:30:26.732Z,6
2023-02-08T12:31:27.100Z,6
2023-02-08T12:32:27.165Z,8
2023-02-08T12:33:27.340Z,5
2023-02-08T12:34:26.769Z,7
2023-02-08T12:35:40.183Z,7
2023-02-08T12:36:28.039Z,6
2023-02-08T12:37:26.815Z,6
2023-02-08T12:38:26.792Z,5
2023-02-08T12:39:26.837Z,4
2023-02-08T12:40:27.609Z,4
2023-02-08T12:41:26.841Z,4
2023-02-08T12:42:26.799Z,4
2023-02-08T12:43:26.823Z,4
2023-02-08T12:44:27.335Z,4
2023-02-08T12:45:27.254Z,4
2023-02-08T12:46:26.803Z,4
2023-02-08T12:47:27.475Z,5
2023-02-08T12:48:27.262Z,4
2023-02-08T12:49:26.871Z,4
2023-02-08T12:50:26.918Z,4
2023-02-08T12:51:26.735Z,4
2023-02-08T12:52:27.124Z,3
2023-02-08T12:53:27.656Z,4
2023-02-08T12:54:27.005Z,4
2023-02-08T12:55:27.307Z,4
2023-02-08T12:56:27.425Z,4
2023-02-08T12:57:26.802Z,4
2023-02-08T12:58:26.854Z,4
2023-02-08T12:59:26.801Z,4
2023-02-08T13:00:27.247Z,4
2023-02-08T13:01:26.760Z,4
2023-02-08T13:02:26.830Z,3
2023-02-08T13:03:27.221Z,3
2023-02-08T13:04:26.963Z,3
2023-02-08T13:05:26.735Z,3
2023-02-08T13:06:26.763Z,3
2023-02-08T13:07:27.622Z,3
2023-02-08T13:08:27.396Z,3
2023-02-08T13:09:26.801Z,3
2023-02-08T13:10:27.105Z,3
2023-02-08T13:11:26.823Z,3
2023-02-08T13:12:26.784Z,2
2023-02-08T13:13:26.743Z,3
2023-02-08T13:14:27.061Z,2
2023-02-08T13:15:31.131Z,3
2023-02-08T13:16:27.187Z,2
2023-02-08T13:17:26.865Z,2
2023-02-08T13:18:26.851Z,2
2023-02-08T13:19:27.361Z,3
2023-02-08T13:20:29.207Z,2
2023-02-08T13:21:26.772Z,2
2023-02-08T13:22:26.775Z,3
2023-02-08T13:23:26.196Z,2
2023-02-08T13:24:27.200Z,2
2023-02-08T13:25:27.194Z,3
2023-02-08T13:26:26.839Z,3
2023-02-08T13:27:26.790Z,2
2023-02-08T13:28:26.881Z,3
2023-02-08T13:29:28.380Z,2
2023-02-08T13:30:27.687Z,2
2023-02-08T13:31:27.766Z,3
2023-02-08T13:32:27.245Z,2
2023-02-08T13:33:27.032Z,2
2023-02-08T13:34:26.745Z,2
2023-02-08T13:35:26.730Z,2
2023-02-08T13:36:26.763Z,2
2023-02-08T13:37:29.576Z,2
2023-02-08T13:38:27.210Z,2
2023-02-08T13:39:26.800Z,2
2023-02-08T13:40:27.436Z,2
2023-02-08T13:41:27.678Z,2
2023-02-08T13:42:27.512Z,3
2023-02-08T13:43:35.508Z,6
2023-02-08T13:44:27.111Z,4
2023-02-08T13:45:27.441Z,3
2023-02-08T13:46:26.793Z,3
2023-02-08T13:47:27.729Z,5
2023-02-08T13:48:26.843Z,3
2023-02-08T13:49:26.849Z,3
2023-02-08T13:50:29.121Z,4
2023-02-08T13:51:26.749Z,6
2023-02-08T13:52:33.673Z,4
2023-02-08T13:53:26.777Z,8
2023-02-08T13:54:27.709Z,6
2023-02-08T13:55:27.213Z,5
2023-02-08T13:56:27.405Z,4
2023-02-08T13:57:27.047Z,7
2023-02-08T13:58:27.080Z,4
2023-02-08T13:59:27.720Z,5
2023-02-08T14:00:26.771Z,7
2023-02-08T14:01:26.838Z,4
2023-02-08T14:02:27.095Z,3
2023-02-08T14:03:27.777Z,3
2023-02-08T14:04:27.436Z,12
2023-02-08T14:05:27.355Z,4
2023-02-08T14:06:26.846Z,4
2023-02-08T14:07:26.749Z,3
2023-02-08T14:08:27.376Z,2
2023-02-08T14:09:26.915Z,3
2023-02-08T14:10:27.718Z,2
2023-02-08T14:11:27.900Z,2
2023-02-08T14:12:27.229Z,2
2023-02-08T14:13:26.747Z,2
2023-02-08T14:14:26.935Z,2
2023-02-08T14:15:27.582Z,2
2023-02-08T14:16:26.971Z,2
2023-02-08T14:17:27.967Z,2
2023-02-08T14:18:27.149Z,3
2023-02-08T14:19:29.218Z,2
2023-02-08T14:20:27.080Z,2
2023-02-08T14:21:26.739Z,2
2023-02-08T14:22:28.380Z,2
2023-02-08T14:23:26.823Z,2
2023-02-08T14:24:26.956Z,2
2023-02-08T14:25:27.001Z,2
2023-02-08T14:26:27.018Z,3
2023-02-08T14:27:26.975Z,3
2023-02-08T14:28:27.049Z,3
2023-02-08T14:29:27.340Z,3
2023-02-08T14:30:26.501Z,2
2023-02-08T14:31:27.397Z,2
2023-02-08T14:32:27.537Z,2
2023-02-08T14:33:27.068Z,2
2023-02-08T14:34:27.231Z,2
2023-02-08T14:35:27.455Z,2
2023-02-08T14:36:27.036Z,2
2023-02-08T14:37:26.871Z,2
2023-02-08T14:38:27.113Z,3
2023-02-08T14:39:26.906Z,3
2023-02-08T14:40:26.977Z,3
2023-02-08T14:41:26.878Z,3
2023-02-08T14:42:27.754Z,3
2023-02-08T14:43:27.288Z,3